sensor_id;sensor_type;location;lat;lon;timestamp;pressure;altitude;pressure_sealevel;temperature;humidity
15260;BME280;34462;51.368;12.364;2023-10-09T00:00:08;20067.88;;;-141.84;74.92
15260;BME280;34462;51.368;12.364;2023-10-09T00:03:03;20090.25;;;-141.84;75.04
15260;BME280;34462;51.368;12.364;2023-10-09T00:05:34;20078.06;;;-141.84;75.91
15260;BME280;34462;51.368;12.364;2023-10-09T00:08:08;20049.59;;;-141.84;76.12
15260;BME280;34462;51.368;12.364;2023-10-09T00:10:38;20086.19;;;-141.84;76.10
15260;BME280;34462;51.368;12.364;2023-10-09T00:13:16;20120.75;;;-141.84;75.53
15260;BME280;34462;51.368;12.364;2023-10-09T00:15:46;20071.97;;;-141.84;75.96
15260;BME280;34462;51.368;12.364;2023-10-09T00:18:20;20037.41;;;-141.84;75.96
15260;BME280;34462;51.368;12.364;2023-10-09T00:20:56;20055.69;;;-141.84;76.12
15260;BME280;34462;51.368;12.364;2023-10-09T00:23:39;20057.72;;;-141.84;76.18
15260;BME280;34462;51.368;12.364;2023-10-09T00:26:08;20067.88;;;-141.84;76.30
15260;BME280;34462;51.368;12.364;2023-10-09T00:28:39;20078.06;;;-141.84;76.07
15260;BME280;34462;51.368;12.364;2023-10-09T00:31:11;20120.75;;;-141.84;76.03
15260;BME280;34462;51.368;12.364;2023-10-09T00:33:42;20088.22;;;-141.84;76.67
15260;BME280;34462;51.368;12.364;2023-10-09T00:36:11;20098.38;;;-141.84;76.66
15260;BME280;34462;51.368;12.364;2023-10-09T00:38:46;20074.00;;;-141.84;77.14
15260;BME280;34462;51.368;12.364;2023-10-09T00:41:18;20045.53;;;-141.84;77.43
15260;BME280;34462;51.368;12.364;2023-10-09T00:43:52;20065.84;;;-141.84;77.00
15260;BME280;34462;51.368;12.364;2023-10-09T00:46:21;20092.28;;;-141.84;77.15
15260;BME280;34462;51.368;12.364;2023-10-09T00:48:56;20080.09;;;-141.84;76.64
15260;BME280;34462;51.368;12.364;2023-10-09T00:51:28;20098.38;;;-141.84;76.51
15260;BME280;34462;51.368;12.364;2023-10-09T00:54:05;20086.19;;;-141.84;76.53
15260;BME280;34462;51.368;12.364;2023-10-09T00:56:43;20088.22;;;-141.84;76.88
15260;BME280;34462;51.368;12.364;2023-10-09T00:59:19;20088.22;;;-141.84;76.90
15260;BME280;34462;51.368;12.364;2023-10-09T01:01:49;20098.38;;;-141.84;76.51
15260;BME280;34462;51.368;12.364;2023-10-09T01:04:25;20092.28;;;-141.84;76.59
15260;BME280;34462;51.368;12.364;2023-10-09T01:06:57;20084.16;;;-141.84;76.09
15260;BME280;34462;51.368;12.364;2023-10-09T01:09:43;20057.72;;;-141.84;76.81
15260;BME280;34462;51.368;12.364;2023-10-09T01:12:12;20074.00;;;-141.84;77.32
15260;BME280;34462;51.368;12.364;2023-10-09T01:14:45;20094.31;;;-141.84;77.36
15260;BME280;34462;51.368;12.364;2023-10-09T01:17:20;20080.09;;;-141.84;76.89
15260;BME280;34462;51.368;12.364;2023-10-09T01:20:04;20074.00;;;-141.84;77.29
15260;BME280;34462;51.368;12.364;2023-10-09T01:22:41;20090.25;;;-141.84;76.82
15260;BME280;34462;51.368;12.364;2023-10-09T01:25:11;20090.25;;;-141.84;76.94
15260;BME280;34462;51.368;12.364;2023-10-09T01:27:40;20114.63;;;-141.84;76.25
15260;BME280;34462;51.368;12.364;2023-10-09T01:30:11;20110.56;;;-141.84;76.14
15260;BME280;34462;51.368;12.364;2023-10-09T01:32:41;20082.13;;;-141.84;76.25
15260;BME280;34462;51.368;12.364;2023-10-09T01:35:10;20100.41;;;-141.84;76.74
15260;BME280;34462;51.368;12.364;2023-10-09T01:37:47;20090.25;;;-141.84;76.85
15260;BME280;34462;51.368;12.364;2023-10-09T01:40:19;20051.63;;;-141.84;77.14
15260;BME280;34462;51.368;12.364;2023-10-09T01:43:03;20065.84;;;-141.84;77.14
15260;BME280;34462;51.368;12.364;2023-10-09T01:45:31;20055.69;;;-141.84;77.00
15260;BME280;34462;51.368;12.364;2023-10-09T01:48:09;20106.50;;;-141.84;76.92
15260;BME280;34462;51.368;12.364;2023-10-09T01:50:39;20084.16;;;-141.84;76.94
15260;BME280;34462;51.368;12.364;2023-10-09T01:53:09;20065.84;;;-141.84;77.24
15260;BME280;34462;51.368;12.364;2023-10-09T01:55:45;20084.16;;;-141.84;77.32
15260;BME280;34462;51.368;12.364;2023-10-09T01:58:13;20098.38;;;-141.84;77.33
15260;BME280;34462;51.368;12.364;2023-10-09T02:00:51;20084.16;;;-141.84;77.44
15260;BME280;34462;51.368;12.364;2023-10-09T02:03:23;20035.38;;;-141.84;77.96
15260;BME280;34462;51.368;12.364;2023-10-09T02:05:53;20074.00;;;-141.84;77.36
15260;BME280;34462;51.368;12.364;2023-10-09T02:08:26;20078.06;;;-141.84;77.57
15260;BME280;34462;51.368;12.364;2023-10-09T02:10:58;20086.19;;;-141.84;77.37
15260;BME280;34462;51.368;12.364;2023-10-09T02:13:26;20094.31;;;-141.84;77.00
15260;BME280;34462;51.368;12.364;2023-10-09T02:15:58;20100.41;;;-141.84;77.10
15260;BME280;34462;51.368;12.364;2023-10-09T02:18:40;20080.09;;;-141.84;77.71
15260;BME280;34462;51.368;12.364;2023-10-09T02:21:20;20057.72;;;-141.84;78.15
15260;BME280;34462;51.368;12.364;2023-10-09T02:24:03;20055.69;;;-141.84;77.81
15260;BME280;34462;51.368;12.364;2023-10-09T02:26:36;20041.47;;;-141.84;77.71
15260;BME280;34462;51.368;12.364;2023-10-09T02:29:33;20059.75;;;-141.84;77.86
15260;BME280;34462;51.368;12.364;2023-10-09T02:32:05;20080.09;;;-141.84;77.71
15260;BME280;34462;51.368;12.364;2023-10-09T02:34:52;20078.06;;;-141.84;77.80
15260;BME280;34462;51.368;12.364;2023-10-09T02:37:21;20053.66;;;-141.84;77.85
15260;BME280;34462;51.368;12.364;2023-10-09T02:39:52;20080.09;;;-141.84;78.43
15260;BME280;34462;51.368;12.364;2023-10-09T02:42:21;20063.81;;;-141.84;78.61
15260;BME280;34462;51.368;12.364;2023-10-09T02:44:55;20049.59;;;-141.84;78.71
15260;BME280;34462;51.368;12.364;2023-10-09T02:47:27;20035.38;;;-141.84;78.48
15260;BME280;34462;51.368;12.364;2023-10-09T02:49:58;20067.88;;;-141.84;78.52
15260;BME280;34462;51.368;12.364;2023-10-09T02:52:33;20074.00;;;-141.84;78.68
15260;BME280;34462;51.368;12.364;2023-10-09T02:55:08;20061.78;;;-141.84;78.71
15260;BME280;34462;51.368;12.364;2023-10-09T02:57:43;20051.63;;;-141.84;78.87
15260;BME280;34462;51.368;12.364;2023-10-09T03:00:12;20043.50;;;-141.84;78.93
15260;BME280;34462;51.368;12.364;2023-10-09T03:02:46;20065.84;;;-141.84;78.68
15260;BME280;34462;51.368;12.364;2023-10-09T03:05:17;20088.22;;;-141.84;78.10
15260;BME280;34462;51.368;12.364;2023-10-09T03:07:48;20098.38;;;-141.84;77.76
15260;BME280;34462;51.368;12.364;2023-10-09T03:10:19;20088.22;;;-141.84;78.26
15260;BME280;34462;51.368;12.364;2023-10-09T03:12:49;20088.22;;;-141.84;77.95
15260;BME280;34462;51.368;12.364;2023-10-09T03:15:20;20065.84;;;-141.84;78.64
15260;BME280;34462;51.368;12.364;2023-10-09T03:17:48;20090.25;;;-141.84;78.62
15260;BME280;34462;51.368;12.364;2023-10-09T03:20:17;20061.78;;;-141.84;78.39
15260;BME280;34462;51.368;12.364;2023-10-09T03:22:45;20094.31;;;-141.84;78.52
15260;BME280;34462;51.368;12.364;2023-10-09T03:25:15;20090.25;;;-141.84;78.87
15260;BME280;34462;51.368;12.364;2023-10-09T03:27:45;20100.41;;;-141.84;78.94
15260;BME280;34462;51.368;12.364;2023-10-09T03:30:16;20114.63;;;-141.84;78.28
15260;BME280;34462;51.368;12.364;2023-10-09T03:32:52;20074.00;;;-141.84;78.31
15260;BME280;34462;51.368;12.364;2023-10-09T03:35:22;20098.38;;;-141.84;78.45
15260;BME280;34462;51.368;12.364;2023-10-09T03:37:56;20116.66;;;-141.84;77.93
15260;BME280;34462;51.368;12.364;2023-10-09T03:40:28;20082.13;;;-141.84;78.29
15260;BME280;34462;51.368;12.364;2023-10-09T03:42:57;20074.00;;;-141.84;78.89
15260;BME280;34462;51.368;12.364;2023-10-09T03:45:29;20071.97;;;-141.84;78.88
15260;BME280;34462;51.368;12.364;2023-10-09T03:48:02;20074.00;;;-141.84;79.30
15260;BME280;34462;51.368;12.364;2023-10-09T03:50:36;20061.78;;;-141.84;79.32
15260;BME280;34462;51.368;12.364;2023-10-09T03:53:05;20071.97;;;-141.84;79.43
15260;BME280;34462;51.368;12.364;2023-10-09T03:55:40;20045.53;;;-141.84;79.11
15260;BME280;34462;51.368;12.364;2023-10-09T03:58:09;20086.19;;;-141.84;79.24
15260;BME280;34462;51.368;12.364;2023-10-09T04:00:40;20108.53;;;-141.84;79.68
15260;BME280;34462;51.368;12.364;2023-10-09T04:03:13;20045.53;;;-141.84;79.77
15260;BME280;34462;51.368;12.364;2023-10-09T04:05:42;20053.66;;;-141.84;80.32
15260;BME280;34462;51.368;12.364;2023-10-09T04:08:12;20025.22;;;-141.84;80.45
15260;BME280;34462;51.368;12.364;2023-10-09T04:10:47;20049.59;;;-141.84;80.49
15260;BME280;34462;51.368;12.364;2023-10-09T04:13:24;20049.59;;;-141.84;80.46
15260;BME280;34462;51.368;12.364;2023-10-09T04:16:03;20027.25;;;-141.84;80.94
15260;BME280;34462;51.368;12.364;2023-10-09T04:18:46;20041.47;;;-141.84;81.13
15260;BME280;34462;51.368;12.364;2023-10-09T04:21:16;20086.19;;;-141.84;81.09
15260;BME280;34462;51.368;12.364;2023-10-09T04:23:46;20039.44;;;-141.84;81.44
15260;BME280;34462;51.368;12.364;2023-10-09T04:26:44;20049.59;;;-141.84;81.54
15260;BME280;34462;51.368;12.364;2023-10-09T04:29:14;20015.03;;;-141.84;82.17
15260;BME280;34462;51.368;12.364;2023-10-09T04:31:47;20013.00;;;-141.84;82.43
15260;BME280;34462;51.368;12.364;2023-10-09T04:34:19;19998.78;;;-141.84;82.72
15260;BME280;34462;51.368;12.364;2023-10-09T04:36:50;20045.53;;;-141.84;82.34
15260;BME280;34462;51.368;12.364;2023-10-09T04:39:23;20015.03;;;-141.84;82.39
15260;BME280;34462;51.368;12.364;2023-10-09T04:42:14;20063.81;;;-141.84;82.92
15260;BME280;34462;51.368;12.364;2023-10-09T04:45:05;20017.09;;;-141.84;83.23
15260;BME280;34462;51.368;12.364;2023-10-09T04:48:04;20006.91;;;-141.84;83.34
15260;BME280;34462;51.368;12.364;2023-10-09T04:50:36;20023.19;;;-141.84;83.39
15260;BME280;34462;51.368;12.364;2023-10-09T04:53:13;20000.81;;;-141.84;84.01
15260;BME280;34462;51.368;12.364;2023-10-09T04:55:50;19996.75;;;-141.84;84.34
15260;BME280;34462;51.368;12.364;2023-10-09T04:58:31;19986.59;;;-141.84;84.71
15260;BME280;34462;51.368;12.364;2023-10-09T05:01:06;19976.44;;;-141.84;85.10
15260;BME280;34462;51.368;12.364;2023-10-09T05:03:43;20002.84;;;-141.84;85.40
15260;BME280;34462;51.368;12.364;2023-10-09T05:06:12;19996.75;;;-141.84;85.56
15260;BME280;34462;51.368;12.364;2023-10-09T05:09:10;19962.19;;;-141.84;85.65
15260;BME280;34462;51.368;12.364;2023-10-09T05:11:42;19982.53;;;-141.84;85.84
15260;BME280;34462;51.368;12.364;2023-10-09T05:14:36;19982.53;;;-141.84;86.25
15260;BME280;34462;51.368;12.364;2023-10-09T05:17:28;19966.28;;;-141.84;86.46
15260;BME280;34462;51.368;12.364;2023-10-09T05:19:57;19941.88;;;-141.84;86.36
15260;BME280;34462;51.368;12.364;2023-10-09T05:22:39;19970.34;;;-141.84;86.14
15260;BME280;34462;51.368;12.364;2023-10-09T05:25:20;19980.50;;;-141.84;86.16
15260;BME280;34462;51.368;12.364;2023-10-09T05:28:08;19982.53;;;-141.84;86.70
15260;BME280;34462;51.368;12.364;2023-10-09T05:30:50;19960.16;;;-141.84;86.84
15260;BME280;34462;51.368;12.364;2023-10-09T05:33:29;19947.97;;;-141.84;86.98
15260;BME280;34462;51.368;12.364;2023-10-09T05:36:04;19984.56;;;-141.84;86.39
15260;BME280;34462;51.368;12.364;2023-10-09T05:38:58;19980.50;;;-141.84;86.19
15260;BME280;34462;51.368;12.364;2023-10-09T05:41:26;19976.44;;;-141.84;86.58
15260;BME280;34462;51.368;12.364;2023-10-09T05:44:15;19998.78;;;-141.84;86.52
15260;BME280;34462;51.368;12.364;2023-10-09T05:47:00;19984.56;;;-141.84;86.64
15260;BME280;34462;51.368;12.364;2023-10-09T05:49:46;19974.41;;;-141.84;86.23
15260;BME280;34462;51.368;12.364;2023-10-09T05:52:23;19943.91;;;-141.84;86.74
15260;BME280;34462;51.368;12.364;2023-10-09T05:55:20;19968.31;;;-141.84;86.27
15260;BME280;34462;51.368;12.364;2023-10-09T05:58:15;20002.84;;;-141.84;86.05
15260;BME280;34462;51.368;12.364;2023-10-09T06:01:01;19992.69;;;-141.84;86.46
15260;BME280;34462;51.368;12.364;2023-10-09T06:03:47;19994.72;;;-141.84;86.21
15260;BME280;34462;51.368;12.364;2023-10-09T06:06:23;20013.00;;;-141.84;86.37
15260;BME280;34462;51.368;12.364;2023-10-09T06:09:13;20041.47;;;-141.84;85.66
15260;BME280;34462;51.368;12.364;2023-10-09T06:12:16;20041.47;;;-141.84;85.38
15260;BME280;34462;51.368;12.364;2023-10-09T06:15:04;20027.25;;;-141.84;85.56
15260;BME280;34462;51.368;12.364;2023-10-09T06:17:47;20017.09;;;-141.84;85.76
15260;BME280;34462;51.368;12.364;2023-10-09T06:20:18;20004.88;;;-141.84;86.47
15260;BME280;34462;51.368;12.364;2023-10-09T06:23:03;19980.50;;;-141.84;86.39
15260;BME280;34462;51.368;12.364;2023-10-09T06:25:44;19972.38;;;-141.84;87.40
15260;BME280;34462;51.368;12.364;2023-10-09T06:28:18;19996.75;;;-141.84;87.19
15260;BME280;34462;51.368;12.364;2023-10-09T06:30:59;20008.94;;;-141.84;87.72
15260;BME280;34462;51.368;12.364;2023-10-09T06:33:49;19956.09;;;-141.84;88.45
15260;BME280;34462;51.368;12.364;2023-10-09T06:36:35;19964.25;;;-141.84;89.00
15260;BME280;34462;51.368;12.364;2023-10-09T06:39:13;19990.66;;;-141.84;89.51
15260;BME280;34462;51.368;12.364;2023-10-09T06:42:00;19958.13;;;-141.84;89.91
15260;BME280;34462;51.368;12.364;2023-10-09T06:44:59;19976.44;;;-141.84;90.00
15260;BME280;34462;51.368;12.364;2023-10-09T06:47:43;19964.25;;;-141.84;89.72
15260;BME280;34462;51.368;12.364;2023-10-09T06:50:20;19962.19;;;-141.84;90.03
15260;BME280;34462;51.368;12.364;2023-10-09T06:53:13;19976.44;;;-141.84;90.41
15260;BME280;34462;51.368;12.364;2023-10-09T06:55:53;19956.09;;;-141.84;90.45
15260;BME280;34462;51.368;12.364;2023-10-09T06:58:33;19976.44;;;-141.84;90.82
15260;BME280;34462;51.368;12.364;2023-10-09T07:01:10;19986.59;;;-141.84;90.62
15260;BME280;34462;51.368;12.364;2023-10-09T07:04:07;20049.59;;;-141.84;90.05
15260;BME280;34462;51.368;12.364;2023-10-09T07:06:48;20021.16;;;-141.84;89.88
15260;BME280;34462;51.368;12.364;2023-10-09T07:09:16;20002.84;;;-141.84;90.11
15260;BME280;34462;51.368;12.364;2023-10-09T07:11:48;20023.19;;;-141.84;89.70
15260;BME280;34462;51.368;12.364;2023-10-09T07:14:32;20041.47;;;-141.84;89.89
15260;BME280;34462;51.368;12.364;2023-10-09T07:17:20;20041.47;;;-141.84;90.41
15260;BME280;34462;51.368;12.364;2023-10-09T07:19:54;20057.72;;;-141.84;90.91
15260;BME280;34462;51.368;12.364;2023-10-09T07:22:40;20065.84;;;-141.84;90.09
15260;BME280;34462;51.368;12.364;2023-10-09T07:25:20;20065.84;;;-141.84;90.04
15260;BME280;34462;51.368;12.364;2023-10-09T07:28:10;20067.88;;;-141.84;90.08
15260;BME280;34462;51.368;12.364;2023-10-09T07:30:48;20059.75;;;-141.84;90.53
15260;BME280;34462;51.368;12.364;2023-10-09T07:33:23;20069.94;;;-141.84;90.49
15260;BME280;34462;51.368;12.364;2023-10-09T07:36:02;20045.53;;;-141.84;91.15
15260;BME280;34462;51.368;12.364;2023-10-09T07:38:35;20031.31;;;-141.84;91.35
15260;BME280;34462;51.368;12.364;2023-10-09T07:41:04;20084.16;;;-141.84;91.19
15260;BME280;34462;51.368;12.364;2023-10-09T07:43:46;20082.13;;;-141.84;90.89
15260;BME280;34462;51.368;12.364;2023-10-09T07:46:17;20025.22;;;-141.84;91.58
15260;BME280;34462;51.368;12.364;2023-10-09T07:49:02;20063.81;;;-141.84;91.81
15260;BME280;34462;51.368;12.364;2023-10-09T07:51:37;20061.78;;;-141.84;91.85
15260;BME280;34462;51.368;12.364;2023-10-09T07:54:06;20084.16;;;-141.84;91.87
15260;BME280;34462;51.368;12.364;2023-10-09T07:56:36;20122.78;;;-141.84;90.87
15260;BME280;34462;51.368;12.364;2023-10-09T07:59:08;20069.94;;;-141.84;90.64
15260;BME280;34462;51.368;12.364;2023-10-09T08:01:40;20094.31;;;-141.84;91.02
15260;BME280;34462;51.368;12.364;2023-10-09T08:04:19;20080.09;;;-141.84;90.75
15260;BME280;34462;51.368;12.364;2023-10-09T08:07:05;20094.31;;;-141.84;91.21
15260;BME280;34462;51.368;12.364;2023-10-09T08:09:54;20088.22;;;-141.84;90.74
15260;BME280;34462;51.368;12.364;2023-10-09T08:12:40;20102.44;;;-141.84;90.41
15260;BME280;34462;51.368;12.364;2023-10-09T08:15:25;20139.03;;;-141.84;90.37
15260;BME280;34462;51.368;12.364;2023-10-09T08:18:03;20100.41;;;-141.84;90.40
15260;BME280;34462;51.368;12.364;2023-10-09T08:20:38;20106.50;;;-141.84;90.55
15260;BME280;34462;51.368;12.364;2023-10-09T08:23:39;20139.03;;;-141.84;90.79
15260;BME280;34462;51.368;12.364;2023-10-09T08:26:16;20175.63;;;-141.84;90.34
15260;BME280;34462;51.368;12.364;2023-10-09T08:28:56;20112.59;;;-141.84;90.19
15260;BME280;34462;51.368;12.364;2023-10-09T08:31:43;20130.91;;;-141.84;89.72
15260;BME280;34462;51.368;12.364;2023-10-09T08:34:25;20090.25;;;-141.84;89.97
15260;BME280;34462;51.368;12.364;2023-10-09T08:36:55;20126.84;;;-141.84;90.57
15260;BME280;34462;51.368;12.364;2023-10-09T08:39:24;20122.78;;;-141.84;90.67
15260;BME280;34462;51.368;12.364;2023-10-09T08:42:00;20104.47;;;-141.84;90.53
15260;BME280;34462;51.368;12.364;2023-10-09T08:44:33;20122.78;;;-141.84;90.73
15260;BME280;34462;51.368;12.364;2023-10-09T08:47:03;20106.50;;;-141.84;91.18
15260;BME280;34462;51.368;12.364;2023-10-09T08:49:34;20065.84;;;-141.84;91.44
15260;BME280;34462;51.368;12.364;2023-10-09T08:52:04;20092.28;;;-141.84;91.38
15260;BME280;34462;51.368;12.364;2023-10-09T08:54:33;20153.25;;;-141.84;91.35
15260;BME280;34462;51.368;12.364;2023-10-09T08:57:02;20177.66;;;-141.84;90.96
15260;BME280;34462;51.368;12.364;2023-10-09T08:59:31;20139.03;;;-141.84;90.68
15260;BME280;34462;51.368;12.364;2023-10-09T09:02:01;20116.66;;;-141.84;90.60
15260;BME280;34462;51.368;12.364;2023-10-09T09:04:39;20147.16;;;-141.84;90.82
15260;BME280;34462;51.368;12.364;2023-10-09T09:07:25;20147.16;;;-141.84;90.73
15260;BME280;34462;51.368;12.364;2023-10-09T09:09:57;20118.69;;;-141.84;91.07
15260;BME280;34462;51.368;12.364;2023-10-09T09:12:30;20102.44;;;-141.84;91.46
15260;BME280;34462;51.368;12.364;2023-10-09T09:15:14;20202.03;;;-141.84;91.06
15260;BME280;34462;51.368;12.364;2023-10-09T09:17:47;20122.78;;;-141.84;90.30
15260;BME280;34462;51.368;12.364;2023-10-09T09:20:23;20165.44;;;-141.84;90.00
15260;BME280;34462;51.368;12.364;2023-10-09T09:22:55;20167.47;;;-141.84;89.87
15260;BME280;34462;51.368;12.364;2023-10-09T09:25:41;20153.25;;;-141.84;90.05
15260;BME280;34462;51.368;12.364;2023-10-09T09:28:12;20191.88;;;-141.84;89.37
15260;BME280;34462;51.368;12.364;2023-10-09T09:30:46;20173.59;;;-141.84;89.71
15260;BME280;34462;51.368;12.364;2023-10-09T09:33:20;20155.28;;;-141.84;90.02
15260;BME280;34462;51.368;12.364;2023-10-09T09:36:08;20167.47;;;-141.84;90.98
15260;BME280;34462;51.368;12.364;2023-10-09T09:38:38;20228.47;;;-141.84;89.90
15260;BME280;34462;51.368;12.364;2023-10-09T09:41:15;20244.72;;;-141.84;89.42
15260;BME280;34462;51.368;12.364;2023-10-09T09:43:54;20218.31;;;-141.84;88.83
15260;BME280;34462;51.368;12.364;2023-10-09T09:46:24;20210.16;;;-141.84;89.63
15260;BME280;34462;51.368;12.364;2023-10-09T09:49:02;20206.09;;;-141.84;90.25
15260;BME280;34462;51.368;12.364;2023-10-09T09:51:34;20269.13;;;-141.84;89.02
15260;BME280;34462;51.368;12.364;2023-10-09T09:54:02;20293.50;;;-141.84;88.08
15260;BME280;34462;51.368;12.364;2023-10-09T09:56:37;20346.34;;;-141.84;87.57
15260;BME280;34462;51.368;12.364;2023-10-09T09:59:08;20346.34;;;-141.84;85.91
15260;BME280;34462;51.368;12.364;2023-10-09T10:01:41;20441.88;;;-141.84;85.29
15260;BME280;34462;51.368;12.364;2023-10-09T10:04:17;20443.91;;;-141.84;84.38
15260;BME280;34462;51.368;12.364;2023-10-09T10:06:50;20470.34;;;-141.84;82.76
15260;BME280;34462;51.368;12.364;2023-10-09T10:09:38;20521.16;;;-141.84;81.15
15260;BME280;34462;51.368;12.364;2023-10-09T10:12:07;20502.88;;;-141.84;82.07
15260;BME280;34462;51.368;12.364;2023-10-09T10:14:52;20496.78;;;-141.84;82.21
15260;BME280;34462;51.368;12.364;2023-10-09T10:17:23;20470.34;;;-141.84;81.79
15260;BME280;34462;51.368;12.364;2023-10-09T10:20:06;20504.91;;;-141.84;81.83
15260;BME280;34462;51.368;12.364;2023-10-09T10:23:15;20435.78;;;-141.84;82.55
15260;BME280;34462;51.368;12.364;2023-10-09T10:25:46;20409.38;;;-141.84;83.98
15260;BME280;34462;51.368;12.364;2023-10-09T10:28:19;20427.66;;;-141.84;84.07
15260;BME280;34462;51.368;12.364;2023-10-09T10:30:56;20454.09;;;-141.84;83.19
15260;BME280;34462;51.368;12.364;2023-10-09T10:34:03;20403.25;;;-141.84;83.89
15260;BME280;34462;51.368;12.364;2023-10-09T10:36:34;20334.16;;;-141.84;84.83
15260;BME280;34462;51.368;12.364;2023-10-09T10:39:06;20340.25;;;-141.84;86.23
15260;BME280;34462;51.368;12.364;2023-10-09T10:41:38;20295.53;;;-141.84;86.96
15260;BME280;34462;51.368;12.364;2023-10-09T10:44:26;20281.31;;;-141.84;87.53
15260;BME280;34462;51.368;12.364;2023-10-09T10:47:11;20301.63;;;-141.84;87.97
15260;BME280;34462;51.368;12.364;2023-10-09T10:49:55;20275.22;;;-141.84;86.96
15260;BME280;34462;51.368;12.364;2023-10-09T10:52:27;20250.81;;;-141.84;87.76
15260;BME280;34462;51.368;12.364;2023-10-09T10:55:13;20232.53;;;-141.84;88.54
15260;BME280;34462;51.368;12.364;2023-10-09T10:58:01;20187.81;;;-141.84;89.34
15260;BME280;34462;51.368;12.364;2023-10-09T11:00:37;20226.44;;;-141.84;89.85
15260;BME280;34462;51.368;12.364;2023-10-09T11:03:24;20216.25;;;-141.84;90.25
15260;BME280;34462;51.368;12.364;2023-10-09T11:06:03;20214.22;;;-141.84;90.60
15260;BME280;34462;51.368;12.364;2023-10-09T11:08:44;20189.84;;;-141.84;90.87
15260;BME280;34462;51.368;12.364;2023-10-09T11:11:23;20242.69;;;-141.84;90.69
15260;BME280;34462;51.368;12.364;2023-10-09T11:14:08;20210.16;;;-141.84;90.67
15260;BME280;34462;51.368;12.364;2023-10-09T11:16:41;20210.16;;;-141.84;90.70
15260;BME280;34462;51.368;12.364;2023-10-09T11:19:11;20216.25;;;-141.84;90.68
15260;BME280;34462;51.368;12.364;2023-10-09T11:21:58;20222.38;;;-141.84;90.64
15260;BME280;34462;51.368;12.364;2023-10-09T11:24:49;20212.19;;;-141.84;90.61
15260;BME280;34462;51.368;12.364;2023-10-09T11:27:40;20216.25;;;-141.84;90.94
15260;BME280;34462;51.368;12.364;2023-10-09T11:30:18;20195.94;;;-141.84;91.00
15260;BME280;34462;51.368;12.364;2023-10-09T11:33:06;20187.81;;;-141.84;91.05
15260;BME280;34462;51.368;12.364;2023-10-09T11:35:41;20177.66;;;-141.84;91.22
15260;BME280;34462;51.368;12.364;2023-10-09T11:38:10;20167.47;;;-141.84;91.53
15260;BME280;34462;51.368;12.364;2023-10-09T11:40:48;20202.03;;;-141.84;91.66
15260;BME280;34462;51.368;12.364;2023-10-09T11:43:53;20163.41;;;-141.84;91.85
15260;BME280;34462;51.368;12.364;2023-10-09T11:46:24;20179.69;;;-141.84;91.67
15260;BME280;34462;51.368;12.364;2023-10-09T11:49:08;20147.16;;;-141.84;91.54
15260;BME280;34462;51.368;12.364;2023-10-09T11:52:06;20173.59;;;-141.84;91.97
15260;BME280;34462;51.368;12.364;2023-10-09T11:54:53;20134.97;;;-141.84;92.37
15260;BME280;34462;51.368;12.364;2023-10-09T11:57:24;20134.97;;;-141.84;92.91
15260;BME280;34462;51.368;12.364;2023-10-09T12:00:00;20141.06;;;-141.84;93.03
15260;BME280;34462;51.368;12.364;2023-10-09T12:02:37;20132.94;;;-141.84;93.44
15260;BME280;34462;51.368;12.364;2023-10-09T12:05:11;20167.47;;;-141.84;93.79
15260;BME280;34462;51.368;12.364;2023-10-09T12:07:44;20104.47;;;-141.84;94.03
15260;BME280;34462;51.368;12.364;2023-10-09T12:10:13;20128.88;;;-141.84;94.42
15260;BME280;34462;51.368;12.364;2023-10-09T12:12:51;20151.22;;;-141.84;94.63
15260;BME280;34462;51.368;12.364;2023-10-09T12:15:21;20122.78;;;-141.84;94.66
15260;BME280;34462;51.368;12.364;2023-10-09T12:17:49;20120.75;;;-141.84;94.76
15260;BME280;34462;51.368;12.364;2023-10-09T12:20:20;20143.09;;;-141.84;94.88
15260;BME280;34462;51.368;12.364;2023-10-09T12:22:59;20122.78;;;-141.84;95.01
15260;BME280;34462;51.368;12.364;2023-10-09T12:25:28;20124.81;;;-141.84;94.92
15260;BME280;34462;51.368;12.364;2023-10-09T12:27:58;20102.44;;;-141.84;94.89
15260;BME280;34462;51.368;12.364;2023-10-09T12:30:30;20061.78;;;-141.84;94.97
15260;BME280;34462;51.368;12.364;2023-10-09T12:33:08;20078.06;;;-141.84;95.05
15260;BME280;34462;51.368;12.364;2023-10-09T12:35:37;20122.78;;;-141.84;95.11
15260;BME280;34462;51.368;12.364;2023-10-09T12:38:07;20112.59;;;-141.84;95.10
15260;BME280;34462;51.368;12.364;2023-10-09T12:40:37;20147.16;;;-141.84;95.21
15260;BME280;34462;51.368;12.364;2023-10-09T12:43:07;20120.75;;;-141.84;95.40
15260;BME280;34462;51.368;12.364;2023-10-09T12:45:43;20114.63;;;-141.84;95.58
15260;BME280;34462;51.368;12.364;2023-10-09T12:48:12;20082.13;;;-141.84;95.51
15260;BME280;34462;51.368;12.364;2023-10-09T12:50:41;20076.03;;;-141.84;95.67
15260;BME280;34462;51.368;12.364;2023-10-09T12:53:11;20139.03;;;-141.84;95.31
15260;BME280;34462;51.368;12.364;2023-10-09T12:55:45;20090.25;;;-141.84;95.38
15260;BME280;34462;51.368;12.364;2023-10-09T12:58:13;20143.09;;;-141.84;95.55
15260;BME280;34462;51.368;12.364;2023-10-09T13:00:44;20116.66;;;-141.84;95.63
15260;BME280;34462;51.368;12.364;2023-10-09T13:03:16;20161.38;;;-141.84;95.81
15260;BME280;34462;51.368;12.364;2023-10-09T13:05:51;20139.03;;;-141.84;95.74
15260;BME280;34462;51.368;12.364;2023-10-09T13:08:27;20112.59;;;-141.84;96.00
15260;BME280;34462;51.368;12.364;2023-10-09T13:11:04;20110.56;;;-141.84;96.00
15260;BME280;34462;51.368;12.364;2023-10-09T13:13:40;20128.88;;;-141.84;96.10
15260;BME280;34462;51.368;12.364;2023-10-09T13:16:15;20145.13;;;-141.84;95.74
15260;BME280;34462;51.368;12.364;2023-10-09T13:18:50;20161.38;;;-141.84;95.44